Beachwood, New Jersey
Current Conditions -  °F | °C
As of 1:35 PM on Saturday 20 Dec 2014 (Local Time) from KMJX Reporting Station
Overcast Overcast  
Wind Chill: 29°   Ceiling: 2900
Heat Index: 34°   Visibility: 10mi
Dew Point: 21°   Wind: 6mph
Humidity: 60%   Direction: 340°NNW
Pressure: 30.27"   Gusts: NA
Location:  39.92°N, 74.21°W
Report Text: KMJX 201835Z AUTO 34005KT 10SM OVC029 01/M06 A3027 RMK AO1
Loading
Personal Weather Stations






























Interactive Weather Map New forecast layout! Learn more

10-Day Weather Forecast

Advertisements
Track Severe Weather on mobile